createdAt,value
2019-03-24T00:01:41.522Z,28.52
2019-03-24T00:04:08.757Z,28.20
2019-03-24T00:06:37.897Z,31.87
2019-03-24T00:09:06.735Z,31.33
2019-03-24T00:11:35.707Z,30.17
2019-03-24T00:14:03.480Z,29.20
2019-03-24T00:16:31.621Z,30.72
2019-03-24T00:18:59.339Z,28.23
2019-03-24T00:21:28.005Z,29.55
2019-03-24T00:23:56.039Z,30.40
2019-03-24T00:26:24.051Z,30.65
2019-03-24T00:28:52.183Z,28.77
2019-03-24T00:31:20.620Z,29.32
2019-03-24T00:33:49.548Z,30.43
2019-03-24T00:36:17.953Z,28.80
2019-03-24T00:38:46.008Z,30.97
2019-03-24T00:41:14.120Z,30.57
2019-03-24T00:43:42.455Z,28.00
2019-03-24T00:46:11.404Z,29.60
2019-03-24T00:48:40.037Z,29.90
2019-03-24T00:51:08.336Z,28.32
2019-03-24T00:53:36.484Z,28.45
2019-03-24T00:56:04.589Z,28.83
2019-03-24T00:58:32.316Z,29.45
2019-03-24T01:01:00.325Z,28.70
2019-03-24T01:03:30.940Z,28.83
2019-03-24T01:06:01.702Z,29.65
2019-03-24T01:08:29.443Z,30.45
2019-03-24T01:10:57.516Z,31.10
2019-03-24T01:13:25.999Z,30.23
2019-03-24T01:15:54.716Z,29.98
2019-03-24T01:18:23.336Z,26.90
2019-03-24T01:20:51.126Z,28.55
2019-03-24T01:23:19.267Z,28.50
2019-03-24T01:25:47.369Z,28.98
2019-03-24T01:28:17.540Z,30.32
2019-03-24T01:30:45.490Z,30.30
2019-03-24T01:33:13.518Z,28.60
2019-03-24T01:35:42.363Z,29.50
2019-03-24T01:38:10.109Z,30.15
2019-03-24T01:40:37.851Z,30.00
2019-03-24T01:43:06.018Z,28.77
2019-03-24T01:45:33.763Z,30.17
2019-03-24T01:48:01.483Z,29.70
2019-03-24T01:50:29.527Z,32.25
2019-03-24T01:52:58.019Z,31.65
2019-03-24T01:55:27.767Z,30.25
2019-03-24T01:57:56.184Z,31.83
2019-03-24T02:00:26.820Z,31.12
2019-03-24T02:02:55.884Z,30.90
2019-03-24T02:05:24.211Z,29.65
2019-03-24T02:07:52.232Z,30.85
2019-03-24T02:10:20.431Z,31.02
2019-03-24T02:12:50.275Z,29.95
2019-03-24T02:15:18.115Z,29.15
2019-03-24T02:17:45.976Z,32.03
2019-03-24T02:20:28.321Z,30.92
2019-03-24T02:22:57.207Z,30.60
2019-03-24T02:25:25.657Z,29.67
2019-03-24T02:27:54.516Z,30.85
2019-03-24T02:30:23.040Z,31.60
2019-03-24T02:32:51.038Z,32.13
2019-03-24T02:35:19.180Z,31.42
2019-03-24T02:37:47.374Z,32.95
2019-03-24T02:40:17.359Z,31.20
2019-03-24T02:42:45.908Z,33.02
2019-03-24T02:45:14.007Z,32.03
2019-03-24T02:47:42.406Z,31.23
2019-03-24T02:50:10.449Z,32.10
2019-03-24T02:52:41.976Z,32.40
2019-03-24T02:55:11.814Z,31.80
2019-03-24T02:57:42.657Z,31.48
2019-03-24T03:02:38.271Z,32.08
2019-03-24T03:05:07.671Z,30.65
2019-03-24T03:07:36.796Z,30.70
2019-03-24T03:10:07.505Z,29.42
2019-03-24T03:15:02.611Z,28.00
2019-03-24T03:17:30.898Z,27.65
2019-03-24T03:19:59.165Z,28.65
2019-03-24T03:22:27.561Z,31.65
2019-03-24T03:24:55.538Z,30.77
2019-03-24T03:27:24.187Z,31.50
2019-03-24T03:29:52.857Z,32.70
2019-03-24T03:32:23.294Z,32.63
2019-03-24T03:34:51.702Z,33.15
2019-03-24T03:37:19.805Z,31.12
2019-03-24T03:39:47.795Z,32.30
2019-03-24T03:42:17.172Z,31.57
2019-03-24T03:44:45.609Z,30.75
2019-03-24T03:47:13.695Z,31.35
2019-03-24T03:49:41.437Z,31.77
2019-03-24T03:52:09.367Z,29.60
2019-03-24T03:54:37.284Z,29.63
2019-03-24T03:57:06.369Z,28.70
2019-03-24T03:59:36.113Z,28.10
2019-03-24T04:02:04.188Z,28.37
2019-03-24T04:04:32.365Z,28.17
2019-03-24T04:07:00.679Z,28.57
2019-03-24T04:09:29.189Z,31.27
2019-03-24T04:11:57.309Z,30.43
2019-03-24T04:14:25.758Z,32.60
2019-03-24T04:17:06.034Z,33.53
2019-03-24T04:19:24.545Z,32.05
2019-03-24T04:21:54.155Z,32.05
2019-03-24T04:24:22.230Z,31.62
2019-03-24T04:26:50.939Z,32.65
2019-03-24T04:29:19.274Z,34.78
2019-03-24T04:31:48.177Z,33.33
2019-03-24T04:34:16.011Z,33.80
2019-03-24T04:36:44.157Z,33.20
2019-03-24T04:39:12.073Z,35.13
2019-03-24T04:41:41.015Z,34.18
2019-03-24T04:44:10.053Z,34.13
2019-03-24T04:46:37.794Z,35.55
2019-03-24T04:49:05.826Z,34.15
2019-03-24T04:51:33.863Z,33.08
2019-03-24T04:54:02.279Z,34.53
2019-03-24T04:56:31.265Z,34.30
2019-03-24T04:58:59.956Z,34.15
2019-03-24T05:01:27.665Z,34.63
2019-03-24T05:03:56.035Z,34.40
2019-03-24T05:06:24.136Z,33.38
2019-03-24T05:08:53.541Z,35.17
2019-03-24T05:11:21.721Z,34.40
2019-03-24T05:13:50.427Z,32.35
2019-03-24T05:16:19.146Z,32.83
2019-03-24T05:18:46.907Z,31.15
2019-03-24T05:21:15.028Z,31.07
2019-03-24T05:23:43.231Z,32.35
2019-03-24T05:26:11.879Z,31.15
2019-03-24T05:28:39.660Z,31.12
2019-03-24T05:31:07.723Z,32.28
2019-03-24T05:33:35.518Z,31.15
2019-03-24T05:36:03.546Z,29.52
2019-03-24T05:38:31.958Z,32.13
2019-03-24T05:40:59.853Z,33.70
2019-03-24T05:43:28.311Z,32.03
2019-03-24T05:45:56.297Z,29.27
2019-03-24T05:48:25.250Z,30.25
2019-03-24T05:50:53.414Z,32.75
2019-03-24T05:53:22.532Z,33.35
2019-03-24T05:55:50.315Z,33.83
2019-03-24T05:58:18.740Z,32.75
2019-03-24T06:00:46.768Z,32.35
2019-03-24T06:03:15.607Z,31.27
2019-03-24T06:05:45.885Z,31.48
2019-03-24T06:08:13.943Z,32.17
2019-03-24T06:10:43.140Z,30.77
2019-03-24T06:13:12.943Z,31.25
2019-03-24T06:15:40.985Z,31.07
2019-03-24T06:18:09.095Z,31.33
2019-03-24T06:20:37.000Z,30.15
2019-03-24T06:23:05.573Z,31.97
2019-03-24T06:25:35.030Z,33.53
2019-03-24T06:28:04.152Z,34.25
2019-03-24T06:30:32.980Z,33.85
2019-03-24T06:33:00.751Z,33.95
2019-03-24T06:35:29.379Z,34.53
2019-03-24T06:37:57.735Z,34.45
2019-03-24T06:40:26.079Z,31.95
2019-03-24T06:42:55.496Z,32.48
2019-03-24T06:45:28.534Z,34.13
2019-03-24T06:47:58.110Z,32.73
2019-03-24T06:50:26.613Z,34.55
2019-03-24T06:52:54.493Z,34.38
2019-03-24T06:55:22.506Z,33.23
2019-03-24T06:57:50.305Z,33.53
2019-03-24T07:00:18.347Z,33.25
2019-03-24T07:02:46.580Z,31.77
2019-03-24T07:05:16.602Z,31.30
2019-03-24T07:07:45.504Z,32.80
2019-03-24T07:10:13.501Z,31.33
2019-03-24T07:12:41.864Z,31.35
2019-03-24T07:15:10.477Z,32.73
2019-03-24T07:17:38.267Z,32.10
2019-03-24T07:20:07.481Z,33.95
2019-03-24T07:22:35.521Z,33.30
2019-03-24T07:25:07.680Z,34.85
2019-03-24T07:27:35.870Z,36.03
2019-03-24T07:30:04.808Z,34.10
2019-03-24T07:32:33.699Z,34.10
2019-03-24T07:35:02.047Z,35.25
2019-03-24T07:37:30.993Z,34.00
2019-03-24T07:39:58.932Z,34.27
2019-03-24T07:42:28.948Z,33.85
2019-03-24T07:44:56.938Z,35.85
2019-03-24T07:47:24.937Z,36.40
2019-03-24T07:49:52.869Z,36.73
2019-03-24T07:52:21.826Z,36.17
2019-03-24T07:54:50.269Z,37.48
2019-03-24T07:57:18.142Z,35.55
2019-03-24T07:59:46.584Z,34.98
2019-03-24T08:02:14.607Z,34.60
2019-03-24T08:04:45.174Z,36.63
2019-03-24T08:07:13.293Z,35.80
2019-03-24T08:09:41.017Z,36.53
2019-03-24T08:12:12.247Z,37.23
2019-03-24T08:14:41.190Z,36.42
2019-03-24T08:17:09.648Z,37.28
2019-03-24T08:19:37.951Z,37.42
2019-03-24T08:22:06.550Z,34.27
2019-03-24T08:24:34.722Z,35.85
2019-03-24T08:27:02.557Z,35.28
2019-03-24T08:29:31.070Z,37.10
2019-03-24T08:31:59.893Z,37.63
2019-03-24T08:34:28.179Z,36.48
2019-03-24T08:36:56.077Z,36.55
2019-03-24T08:39:24.519Z,37.30
2019-03-24T08:41:52.707Z,38.65
2019-03-24T08:44:21.323Z,38.33
2019-03-24T08:46:49.892Z,39.65
2019-03-24T08:49:21.130Z,37.63
2019-03-24T08:51:51.487Z,38.83
2019-03-24T08:54:21.260Z,33.95
2019-03-24T08:56:51.483Z,34.20
2019-03-24T08:59:19.544Z,37.58
2019-03-24T09:01:48.573Z,38.00
2019-03-24T09:04:17.021Z,35.50
2019-03-24T09:06:45.219Z,35.20
2019-03-24T09:09:13.301Z,36.85
2019-03-24T09:11:41.393Z,34.43
2019-03-24T09:14:09.690Z,37.60
2019-03-24T09:16:37.742Z,36.35
2019-03-24T09:19:05.651Z,36.63
2019-03-24T09:21:36.325Z,35.30
2019-03-24T09:26:31.894Z,34.73
2019-03-24T09:29:00.026Z,32.88
2019-03-24T09:31:28.672Z,36.10
2019-03-24T09:33:56.820Z,33.53
2019-03-24T09:36:25.812Z,35.52
2019-03-24T09:38:54.625Z,35.92
2019-03-24T09:41:23.098Z,35.95
2019-03-24T09:43:51.347Z,34.85
2019-03-24T09:46:19.447Z,36.10
2019-03-24T09:48:48.133Z,35.50
2019-03-24T09:51:16.840Z,35.95
2019-03-24T09:53:47.043Z,34.65
2019-03-24T09:56:16.456Z,35.83
2019-03-24T09:58:44.360Z,33.60
2019-03-24T10:01:12.478Z,34.78
2019-03-24T10:03:40.639Z,33.78
2019-03-24T10:06:08.404Z,37.78
2019-03-24T10:08:46.811Z,35.60
2019-03-24T10:11:06.744Z,34.33
2019-03-24T10:13:43.253Z,36.45
2019-03-24T10:16:11.696Z,34.70
2019-03-24T10:18:40.350Z,35.30
2019-03-24T10:21:10.179Z,35.43
2019-03-24T10:23:38.464Z,37.10
2019-03-24T10:26:07.583Z,36.42
2019-03-24T10:28:36.345Z,34.53
2019-03-24T10:31:04.812Z,34.88
2019-03-24T10:33:33.332Z,35.17
2019-03-24T10:36:01.349Z,30.40
2019-03-24T10:38:29.853Z,33.85
2019-03-24T10:40:58.198Z,33.75
2019-03-24T10:43:27.217Z,34.18
2019-03-24T10:45:55.978Z,33.23
2019-03-24T10:48:33.386Z,33.42
2019-03-24T10:50:54.789Z,32.33
2019-03-24T10:53:23.630Z,35.08
2019-03-24T10:55:51.552Z,36.30
2019-03-24T10:58:19.647Z,30.72
2019-03-24T11:00:48.048Z,33.53
2019-03-24T11:03:16.123Z,33.42
2019-03-24T11:05:43.976Z,33.10
2019-03-24T11:08:12.937Z,33.65
2019-03-24T11:10:40.760Z,33.23
2019-03-24T11:13:08.789Z,35.60
2019-03-24T11:15:36.889Z,34.25
2019-03-24T11:18:06.072Z,30.75
2019-03-24T11:20:35.234Z,30.50
2019-03-24T11:23:03.134Z,33.65
2019-03-24T11:25:31.883Z,34.92
2019-03-24T11:28:00.008Z,33.28
2019-03-24T11:30:30.332Z,32.03
2019-03-24T11:32:59.547Z,31.82
2019-03-24T11:35:27.675Z,32.28
2019-03-24T11:37:56.172Z,36.35
2019-03-24T11:40:24.394Z,31.45
2019-03-24T11:42:55.291Z,34.27
2019-03-24T11:45:24.106Z,34.48
2019-03-24T11:47:52.146Z,34.27
2019-03-24T11:50:20.622Z,34.78
2019-03-24T11:52:48.688Z,33.18
2019-03-24T11:55:17.271Z,28.00
2019-03-24T11:57:45.447Z,34.83
2019-03-24T12:00:13.464Z,33.90
2019-03-24T12:02:41.442Z,30.92
2019-03-24T12:05:09.683Z,31.62
2019-03-24T12:07:37.465Z,33.95
2019-03-24T12:10:06.756Z,30.35
2019-03-24T12:12:35.113Z,30.02
2019-03-24T12:15:05.590Z,31.35
2019-03-24T12:17:34.140Z,33.25
2019-03-24T12:20:02.451Z,34.08
2019-03-24T12:22:30.567Z,28.30
2019-03-24T12:24:58.523Z,30.12
2019-03-24T12:27:26.871Z,31.42
2019-03-24T12:29:55.004Z,32.17
2019-03-24T12:32:23.210Z,33.18
2019-03-24T12:34:51.408Z,29.60
2019-03-24T12:37:19.432Z,30.35
2019-03-24T12:39:47.877Z,32.58
2019-03-24T12:42:16.608Z,28.25
2019-03-24T12:44:45.567Z,31.55
2019-03-24T12:47:13.898Z,30.37
2019-03-24T12:49:51.499Z,31.23
2019-03-24T12:52:20.054Z,29.87
2019-03-24T12:54:48.408Z,30.70
2019-03-24T12:57:18.390Z,32.40
2019-03-24T12:59:47.177Z,28.17
2019-03-24T13:02:15.217Z,31.27
2019-03-24T13:04:42.984Z,31.12
2019-03-24T13:07:11.100Z,30.85
2019-03-24T13:09:39.167Z,27.00
2019-03-24T13:12:07.616Z,25.75
2019-03-24T13:14:35.834Z,22.13
2019-03-24T13:17:04.314Z,29.95
2019-03-24T13:19:35.882Z,25.88
2019-03-24T13:22:02.884Z,27.77
2019-03-24T13:24:30.928Z,29.60
2019-03-24T13:26:59.084Z,29.67
2019-03-24T13:29:27.287Z,30.52
2019-03-24T13:31:57.395Z,31.85
2019-03-24T13:34:28.959Z,28.70
2019-03-24T13:36:57.060Z,30.30
2019-03-24T13:39:24.824Z,31.12
2019-03-24T13:41:53.378Z,29.07
2019-03-24T13:44:21.839Z,31.77
2019-03-24T13:46:49.941Z,31.17
2019-03-24T13:49:18.004Z,32.30
2019-03-24T13:51:46.217Z,30.27
2019-03-24T13:54:15.334Z,29.18
2019-03-24T13:56:43.375Z,30.37
2019-03-24T13:59:11.103Z,31.73
2019-03-24T14:01:40.115Z,31.37
2019-03-24T14:04:08.808Z,30.10
2019-03-24T14:06:37.444Z,28.47
2019-03-24T14:09:08.090Z,21.12
2019-03-24T14:14:07.860Z,32.05
2019-03-24T14:16:37.284Z,30.60
2019-03-24T14:19:05.288Z,31.62
2019-03-24T14:21:33.376Z,34.48
2019-03-24T14:24:01.323Z,33.13
2019-03-24T14:26:29.104Z,32.85
2019-03-24T14:28:57.565Z,30.40
2019-03-24T14:31:26.734Z,30.92
2019-03-24T14:33:54.796Z,32.65
2019-03-24T14:36:23.233Z,32.13
2019-03-24T14:38:51.388Z,33.95
2019-03-24T14:41:20.117Z,33.02
2019-03-24T14:43:48.255Z,33.35
2019-03-24T14:46:16.374Z,31.12
2019-03-24T14:48:45.199Z,33.95
2019-03-24T14:51:14.155Z,32.88
2019-03-24T14:53:42.168Z,32.63
2019-03-24T14:56:12.509Z,30.57
2019-03-24T14:58:40.830Z,33.02
2019-03-24T15:01:08.602Z,33.55
2019-03-24T15:03:37.946Z,32.93
2019-03-24T15:06:06.540Z,33.23
2019-03-24T15:08:35.917Z,32.33
2019-03-24T15:11:05.364Z,34.80
2019-03-24T15:13:34.564Z,31.85
2019-03-24T15:16:04.523Z,30.97
2019-03-24T15:18:32.715Z,31.65
2019-03-24T15:21:05.499Z,31.27
2019-03-24T15:23:31.354Z,32.50
2019-03-24T15:26:11.998Z,34.40
2019-03-24T15:31:07.631Z,29.25
2019-03-24T15:33:35.400Z,27.50
2019-03-24T15:36:03.775Z,31.35
2019-03-24T15:38:32.532Z,31.10
2019-03-24T15:41:00.744Z,31.42
2019-03-24T15:43:28.802Z,28.47
2019-03-24T15:45:57.522Z,31.35
2019-03-24T15:48:25.546Z,28.50
2019-03-24T15:50:54.076Z,30.57
2019-03-24T15:53:22.206Z,29.50
2019-03-24T15:55:51.354Z,31.27
2019-03-24T15:58:19.370Z,28.07
2019-03-24T16:00:48.357Z,23.67
2019-03-24T16:03:16.843Z,29.98
2019-03-24T16:05:44.569Z,30.62
2019-03-24T16:08:12.915Z,31.05
2019-03-24T16:10:42.146Z,31.68
2019-03-24T16:13:11.700Z,30.08
2019-03-24T16:15:40.673Z,31.02
2019-03-24T16:18:09.426Z,31.50
2019-03-24T16:20:38.127Z,31.52
2019-03-24T16:23:07.284Z,30.00
2019-03-24T16:25:35.317Z,26.65
2019-03-24T16:28:06.426Z,29.57
2019-03-24T16:30:35.183Z,28.57
2019-03-24T16:33:03.003Z,30.40
2019-03-24T16:35:31.197Z,30.70
2019-03-24T16:37:59.293Z,30.75
2019-03-24T16:40:27.648Z,31.23
2019-03-24T16:42:56.612Z,29.85
2019-03-24T16:45:24.690Z,28.92
2019-03-24T16:47:52.617Z,29.82
2019-03-24T16:50:20.666Z,30.45
2019-03-24T16:52:49.149Z,30.08
2019-03-24T16:55:17.790Z,30.05
2019-03-24T16:57:46.666Z,29.07
2019-03-24T17:00:14.711Z,30.75
2019-03-24T17:02:42.541Z,29.52
2019-03-24T17:05:10.564Z,28.60
2019-03-24T17:07:38.585Z,29.05
2019-03-24T17:10:08.305Z,29.42
2019-03-24T17:12:36.575Z,30.37
2019-03-24T17:15:05.017Z,29.80
2019-03-24T17:17:33.896Z,29.70
2019-03-24T17:20:03.261Z,30.02
2019-03-24T17:22:31.781Z,29.60
2019-03-24T17:25:00.400Z,30.68
2019-03-24T17:27:28.691Z,28.98
2019-03-24T17:29:56.931Z,28.47
2019-03-24T17:32:25.154Z,30.62
2019-03-24T17:34:53.181Z,29.82
2019-03-24T17:37:21.720Z,27.85
2019-03-24T17:39:50.229Z,30.85
2019-03-24T17:42:17.995Z,28.77
2019-03-24T17:44:46.596Z,30.68
2019-03-24T17:47:16.348Z,32.30
2019-03-24T17:49:45.561Z,29.43
2019-03-24T17:52:13.793Z,34.60
2019-03-24T17:54:41.959Z,28.73
2019-03-24T17:57:10.198Z,34.05
2019-03-24T17:59:38.303Z,32.88
2019-03-24T18:02:14.158Z,36.05
2019-03-24T18:04:36.610Z,34.13
2019-03-24T18:07:06.425Z,24.57
2019-03-24T18:09:34.561Z,37.40
2019-03-24T18:12:05.019Z,31.68
2019-03-24T18:14:33.483Z,38.00
2019-03-24T18:17:01.370Z,37.95
2019-03-24T18:19:29.708Z,29.98
2019-03-24T18:21:59.049Z,32.80
2019-03-24T18:24:27.443Z,30.52
2019-03-24T18:26:56.390Z,28.32
2019-03-24T18:29:27.784Z,35.25
2019-03-24T18:31:55.536Z,41.15
2019-03-24T18:34:24.462Z,21.42
2019-03-24T18:36:52.659Z,36.20
2019-03-24T18:39:21.430Z,42.25
2019-03-24T18:41:49.840Z,32.60
2019-03-24T18:44:19.185Z,40.25
2019-03-24T18:46:46.970Z,29.30
2019-03-24T18:49:15.503Z,36.40
2019-03-24T18:51:44.397Z,32.33
2019-03-24T18:54:12.569Z,41.33
2019-03-24T18:56:40.797Z,37.67
2019-03-24T18:59:09.148Z,38.17
2019-03-24T19:01:37.108Z,33.08
2019-03-24T19:04:05.170Z,37.20
2019-03-24T19:06:35.196Z,34.48
2019-03-24T19:09:05.535Z,38.58
2019-03-24T19:11:34.252Z,43.33
2019-03-24T19:14:06.814Z,33.23
2019-03-24T19:16:35.603Z,34.23
2019-03-24T19:19:04.235Z,42.90
2019-03-24T19:21:32.303Z,39.35
2019-03-24T19:24:00.803Z,35.58
2019-03-24T19:26:29.254Z,39.53
2019-03-24T19:28:59.091Z,42.35
2019-03-24T19:31:27.906Z,40.80
2019-03-24T19:33:56.050Z,42.35
2019-03-24T19:36:24.738Z,30.68
2019-03-24T19:38:54.560Z,33.98
2019-03-24T19:41:22.748Z,41.97
2019-03-24T19:43:51.187Z,39.03
2019-03-24T19:46:21.103Z,43.28
2019-03-24T19:48:49.287Z,41.23
2019-03-24T19:51:17.471Z,41.02
2019-03-24T19:53:45.698Z,42.73
2019-03-24T19:56:14.216Z,40.67
2019-03-24T19:58:42.558Z,44.73
2019-03-24T20:01:11.388Z,44.77
2019-03-24T20:03:40.367Z,43.78
2019-03-24T20:06:08.941Z,43.78
2019-03-24T20:08:37.069Z,42.40
2019-03-24T20:11:05.079Z,43.87
2019-03-24T20:13:32.967Z,44.70
2019-03-24T20:16:01.974Z,40.65
2019-03-24T20:18:30.730Z,43.83
2019-03-24T20:20:58.814Z,44.80
2019-03-24T20:23:27.273Z,43.17
2019-03-24T20:25:55.314Z,40.23
2019-03-24T20:28:24.409Z,46.37
2019-03-24T20:30:52.631Z,44.42
2019-03-24T20:33:20.856Z,47.45
2019-03-24T20:35:49.543Z,47.38
2019-03-24T20:38:17.628Z,44.38
2019-03-24T20:40:45.742Z,44.05
2019-03-24T20:43:15.563Z,45.70
2019-03-24T20:45:44.857Z,44.30
2019-03-24T20:48:14.185Z,39.63
2019-03-24T20:50:44.355Z,45.73
2019-03-24T20:53:18.320Z,49.10
2019-03-24T20:55:45.129Z,44.67
2019-03-24T20:58:14.789Z,43.83
2019-03-24T21:00:42.881Z,49.45
2019-03-24T21:03:10.957Z,43.17
2019-03-24T21:05:40.481Z,42.88
2019-03-24T21:08:09.952Z,44.20
2019-03-24T21:10:37.786Z,46.10
2019-03-24T21:13:06.540Z,48.40
2019-03-24T21:15:34.708Z,47.08
2019-03-24T21:18:04.228Z,46.70
2019-03-24T21:20:32.444Z,44.55
2019-03-24T21:23:00.431Z,45.95
2019-03-24T21:25:29.044Z,46.58
2019-03-24T21:27:58.203Z,44.25
2019-03-24T21:30:37.120Z,44.85
2019-03-24T21:33:05.431Z,47.08
2019-03-24T21:35:33.907Z,46.25
2019-03-24T21:38:05.092Z,46.70
2019-03-24T21:40:33.235Z,47.10
2019-03-24T21:43:01.295Z,50.48
2019-03-24T21:45:30.547Z,49.33
2019-03-24T21:47:58.813Z,52.78
2019-03-24T21:50:26.837Z,48.45
2019-03-24T21:52:55.261Z,52.33
2019-03-24T21:55:23.614Z,52.83
2019-03-24T21:57:57.362Z,55.98
2019-03-24T22:00:31.407Z,52.62
2019-03-24T22:02:59.455Z,51.65
2019-03-24T22:05:27.808Z,53.52
2019-03-24T22:07:55.811Z,55.23
2019-03-24T22:10:23.903Z,51.00
2019-03-24T22:12:52.979Z,51.08
2019-03-24T22:15:21.143Z,53.60
2019-03-24T22:17:49.536Z,48.33
2019-03-24T22:20:17.642Z,54.18
2019-03-24T22:22:47.106Z,52.58
2019-03-24T22:25:15.343Z,55.40
2019-03-24T22:27:44.218Z,48.30
2019-03-24T22:30:12.718Z,49.45
2019-03-24T22:32:40.897Z,50.75
2019-03-24T22:35:09.044Z,56.25
2019-03-24T22:37:37.471Z,51.98
2019-03-24T22:40:07.085Z,53.42
2019-03-24T22:42:34.801Z,49.50
2019-03-24T22:45:03.073Z,51.02
2019-03-24T22:47:31.012Z,49.45
2019-03-24T22:49:59.706Z,51.83
2019-03-24T22:52:27.456Z,53.40
2019-03-24T22:54:56.167Z,51.15
2019-03-24T22:57:25.211Z,53.83
2019-03-24T22:59:53.225Z,53.23
2019-03-24T23:02:22.339Z,50.90
2019-03-24T23:04:50.673Z,50.85
2019-03-24T23:07:19.120Z,50.15
2019-03-24T23:09:47.134Z,52.35
2019-03-24T23:12:15.630Z,52.60
2019-03-24T23:14:46.358Z,51.15
2019-03-24T23:17:17.520Z,51.70
2019-03-24T23:19:47.095Z,53.13
2019-03-24T23:22:15.411Z,50.58
2019-03-24T23:24:43.452Z,52.33
2019-03-24T23:27:12.384Z,50.90
2019-03-24T23:29:40.724Z,51.02
2019-03-24T23:32:10.933Z,52.48
2019-03-24T23:34:39.093Z,53.13
2019-03-24T23:37:07.384Z,54.65
2019-03-24T23:39:35.436Z,50.30
2019-03-24T23:42:03.843Z,52.48
2019-03-24T23:44:31.978Z,50.95
2019-03-24T23:47:00.011Z,53.15
2019-03-24T23:49:27.921Z,53.55
2019-03-24T23:51:56.558Z,55.80
2019-03-24T23:54:27.244Z,54.93
2019-03-24T23:56:54.213Z,55.90
2019-03-24T23:59:22.344Z,53.68
